Time;durP1;ratioP1;P1;durP2;ratioP2;P2;SDS_P1;SDS_P2;PMS_P1;PMS_P2;Temp;Humidity;BMP_temperature;BMP_pressure;BME280_temperature;BME280_humidity;BME280_pressure;Samples;Min_cycle;Max_cycle;Signal;HPM_P1;HPM_P2
2024/01/30 00:00:08;;;;;;;23.67;17.15;;;;;;;-146.25;100.00;52595.28;2105094;28;36334;-61
2024/01/30 00:01:17;;;;;;;22.60;16.15;;;;;;;-146.25;100.00;52558.78;2105828;28;20880;-61
2024/01/30 00:02:18;;;;;;;21.92;15.65;;;;;;;-146.25;100.00;52591.25;2105934;28;20039;-62
2024/01/30 00:03:20;;;;;;;25.40;15.93;;;;;;;-146.25;100.00;52581.09;2105024;28;35744;-62
2024/01/30 00:04:25;;;;;;;20.50;15.60;;;;;;;-146.25;100.00;52585.16;2105463;28;31163;-61
2024/01/30 00:05:26;;;;;;;22.50;15.80;;;;;;;-146.25;100.00;52570.97;2106030;28;20029;-61
2024/01/30 00:06:28;;;;;;;23.90;16.30;;;;;;;-146.25;100.00;52548.66;2095860;28;38618;-61
2024/01/30 00:07:30;;;;;;;21.13;15.88;;;;;;;-146.25;100.00;52560.81;2096227;28;33303;-61
2024/01/30 00:08:32;;;;;;;22.77;15.88;;;;;;;-146.25;100.00;52595.28;2105833;28;20080;-62
2024/01/30 00:09:34;;;;;;;19.92;15.40;;;;;;;-146.25;100.00;52554.75;2105205;28;28372;-62
2024/01/30 00:10:36;;;;;;;21.88;16.45;;;;;;;-146.25;100.00;52579.06;2105005;28;32180;-62
2024/01/30 00:11:38;;;;;;;23.02;15.75;;;;;;;-146.25;100.00;52597.31;2106156;28;20040;-61
2024/01/30 00:12:39;;;;;;;21.33;15.25;;;;;;;-146.25;100.00;52605.44;2105129;28;29027;-62
2024/01/30 00:13:41;;;;;;;23.50;16.25;;;;;;;-146.25;100.00;52558.78;2105559;28;34277;-62
2024/01/30 00:14:43;;;;;;;21.70;15.88;;;;;;;-146.25;100.00;52591.25;2105340;28;31556;-62
2024/01/30 00:15:45;;;;;;;22.38;16.48;;;;;;;-146.25;100.00;52550.69;2105059;28;32757;-61
2024/01/30 00:16:47;;;;;;;22.27;16.23;;;;;;;-146.25;100.00;52568.94;2105195;28;35177;-61
2024/01/30 00:17:51;;;;;;;19.73;15.68;;;;;;;-146.25;100.00;52577.03;2105193;28;37263;-61
2024/01/30 00:18:56;;;;;;;20.55;16.52;;;;;;;-146.25;100.00;52558.78;2096058;28;30023;-61
2024/01/30 00:20:00;;;;;;;20.33;15.73;;;;;;;-146.25;100.00;52613.53;2097617;28;32728;-61
2024/01/30 00:21:03;;;;;;;22.02;16.10;;;;;;;-146.25;100.00;52562.84;2105186;28;32610;-61
2024/01/30 00:22:05;;;;;;;20.05;16.20;;;;;;;-146.25;100.00;52566.91;2105153;28;33067;-61
2024/01/30 00:23:07;;;;;;;22.50;15.75;;;;;;;-146.25;100.00;52581.09;2105160;28;35334;-61
2024/01/30 00:24:09;;;;;;;21.75;15.95;;;;;;;-146.25;100.00;52613.53;2105720;28;20946;-61
2024/01/30 00:25:11;;;;;;;23.67;16.88;;;;;;;-146.25;100.00;52558.78;2104799;28;37172;-61
2024/01/30 00:26:14;;;;;;;21.80;16.45;;;;;;;-146.25;100.00;52595.28;2105438;28;34044;-61
2024/01/30 00:27:16;;;;;;;23.55;16.00;;;;;;;-146.25;100.00;52548.66;2096041;28;34669;-61
2024/01/30 00:28:18;;;;;;;22.15;16.10;;;;;;;-146.25;100.00;52554.75;2097285;28;24183;-61
2024/01/30 00:29:22;;;;;;;22.30;16.33;;;;;;;-146.25;100.00;52566.91;2104802;28;30637;-61
2024/01/30 00:30:25;;;;;;;21.55;16.30;;;;;;;-146.25;100.00;52575.00;2105843;28;20246;-61
2024/01/30 00:31:26;;;;;;;22.05;17.52;;;;;;;-146.25;100.00;52570.97;2105506;28;20917;-61
2024/01/30 00:32:28;;;;;;;22.15;15.45;;;;;;;-146.25;100.00;52562.84;2105120;28;38474;-61
2024/01/30 00:33:30;;;;;;;23.48;16.52;;;;;;;-146.25;100.00;52566.91;2104689;28;32018;-61
2024/01/30 00:34:32;;;;;;;21.13;15.93;;;;;;;-146.25;100.00;52526.34;2105373;28;35263;-61
2024/01/30 00:35:34;;;;;;;23.20;17.13;;;;;;;-146.25;100.00;52613.53;2104784;28;36057;-60
2024/01/30 00:36:36;;;;;;;22.45;16.02;;;;;;;-146.25;100.00;52550.69;2110491;28;20094;-61
2024/01/30 00:37:38;;;;;;;19.38;15.23;;;;;;;-146.25;100.00;52597.31;2104479;28;34148;-60
2024/01/30 00:38:40;;;;;;;20.90;15.07;;;;;;;-146.25;100.00;52548.66;2104691;28;31914;-61
2024/01/30 00:39:42;;;;;;;20.52;15.57;;;;;;;-146.25;100.00;52566.91;2113225;28;32898;-61
2024/01/30 00:40:46;;;;;;;19.33;14.48;;;;;;;-146.25;100.00;52613.53;2109631;28;36271;-61
2024/01/30 00:41:47;;;;;;;19.77;15.68;;;;;;;-146.25;100.00;52607.47;2105375;28;31604;-61
2024/01/30 00:42:49;;;;;;;23.63;16.58;;;;;;;-146.25;100.00;52591.25;2104875;28;37484;-61
2024/01/30 00:43:53;;;;;;;22.00;16.77;;;;;;;-146.25;100.00;52583.13;2105936;28;20043;-60
2024/01/30 00:44:55;;;;;;;22.65;15.65;;;;;;;-146.25;100.00;52595.28;2103885;28;35062;-61
2024/01/30 00:45:57;;;;;;;22.73;16.92;;;;;;;-146.25;100.00;52599.34;2095874;28;36888;-60
2024/01/30 00:46:59;;;;;;;25.17;16.88;;;;;;;-146.25;100.00;52599.34;2087911;28;30778;-61
2024/01/30 00:48:01;;;;;;;24.60;15.27;;;;;;;-146.25;100.00;52552.72;2096101;28;37442;-61
2024/01/30 00:49:05;;;;;;;22.02;15.82;;;;;;;-146.25;100.00;52597.31;2105508;28;20115;-61
2024/01/30 00:50:07;;;;;;;21.50;16.10;;;;;;;-146.25;100.00;52577.03;2104828;28;33798;-61
2024/01/30 00:51:09;;;;;;;19.95;14.43;;;;;;;-146.25;100.00;52558.78;2104862;28;38624;-61
2024/01/30 00:52:11;;;;;;;21.50;15.60;;;;;;;-146.25;100.00;52579.06;2105141;28;29537;-60
2024/01/30 00:53:13;;;;;;;20.85;15.18;;;;;;;-146.25;100.00;52579.06;2104967;28;36402;-61
2024/01/30 00:54:15;;;;;;;18.52;14.63;;;;;;;-146.25;100.00;52587.19;2105434;28;20341;-60
2024/01/30 00:55:17;;;;;;;22.17;16.75;;;;;;;-146.25;100.00;52575.00;2096026;28;36696;-61
2024/01/30 00:56:19;;;;;;;23.23;16.90;;;;;;;-146.25;100.00;52585.16;2095886;28;33844;-61
2024/01/30 00:57:21;;;;;;;20.33;15.75;;;;;;;-146.25;100.00;52566.91;2087924;28;31877;-61
2024/01/30 00:58:22;;;;;;;23.73;16.98;;;;;;;-146.25;100.00;52579.06;2087911;28;33347;-61
2024/01/30 00:59:24;;;;;;;23.83;16.80;;;;;;;-146.25;100.00;52591.25;2105675;28;20905;-61
2024/01/30 01:00:29;;;;;;;21.92;15.85;;;;;;;-146.25;100.00;52595.28;2104990;28;33757;-61
2024/01/30 01:01:31;;;;;;;20.30;16.40;;;;;;;-146.25;100.00;52554.75;2105160;28;28384;-61
2024/01/30 01:02:34;;;;;;;22.38;16.70;;;;;;;-146.25;100.00;52570.97;2096147;28;29700;-61
2024/01/30 01:03:38;;;;;;;22.45;15.88;;;;;;;-146.25;100.00;52550.69;2097175;28;35233;-61
2024/01/30 01:04:40;;;;;;;24.77;16.40;;;;;;;-146.25;100.00;52587.19;2147152;23;29071;-62
2024/01/30 01:05:41;;;;;;;25.45;17.00;;;;;;;-146.25;100.00;52550.69;2114342;27;31409;-62
2024/01/30 01:06:43;;;;;;;22.55;16.65;;;;;;;-146.25;100.00;52550.69;2121808;27;33678;-62
2024/01/30 01:07:47;;;;;;;21.48;16.08;;;;;;;-146.25;100.00;52585.16;2122659;27;20165;-62
2024/01/30 01:08:51;;;;;;;24.52;17.27;;;;;;;-146.25;100.00;52552.72;2121479;27;33610;-62
2024/01/30 01:09:53;;;;;;;23.38;16.52;;;;;;;-146.25;100.00;52599.34;2121564;27;33386;-62
2024/01/30 01:10:55;;;;;;;23.00;17.00;;;;;;;-146.25;100.00;52613.53;2121557;27;31553;-62
2024/01/30 01:11:57;;;;;;;23.42;17.35;;;;;;;-146.25;100.00;52570.97;2122282;27;34247;-62
2024/01/30 01:12:58;;;;;;;19.98;15.98;;;;;;;-146.25;100.00;52579.06;2121699;27;33949;-62
2024/01/30 01:14:00;;;;;;;23.88;17.02;;;;;;;-146.25;100.00;52595.28;2121738;27;33164;-62
2024/01/30 01:15:02;;;;;;;23.15;16.48;;;;;;;-146.25;100.00;52570.97;2121660;27;35818;-62
2024/01/30 01:16:04;;;;;;;19.15;15.45;;;;;;;-146.25;100.00;52605.44;2122536;27;20050;-61
2024/01/30 01:17:06;;;;;;;20.20;16.42;;;;;;;-146.25;100.00;52577.03;2121640;27;35273;-63
2024/01/30 01:18:08;;;;;;;19.73;15.50;;;;;;;-146.25;100.00;52556.75;2122099;27;32633;-62
2024/01/30 01:19:10;;;;;;;22.48;16.55;;;;;;;-146.25;100.00;52560.81;2121419;27;33540;-62
2024/01/30 01:20:12;;;;;;;20.83;16.33;;;;;;;-146.25;100.00;52583.13;2121996;27;38476;-61
2024/01/30 01:21:13;;;;;;;20.88;16.00;;;;;;;-146.25;100.00;52573.00;2122289;27;20134;-62
2024/01/30 01:22:17;;;;;;;21.60;16.40;;;;;;;-146.25;100.00;52552.72;2112306;28;35200;-61
2024/01/30 01:23:18;;;;;;;23.20;17.13;;;;;;;-146.25;100.00;52573.00;2104411;28;33125;-62
2024/01/30 01:24:20;;;;;;;20.95;16.08;;;;;;;-146.25;100.00;52585.16;2112859;27;33239;-62
2024/01/30 01:25:22;;;;;;;20.75;16.73;;;;;;;-146.25;100.00;52544.59;2121357;27;35934;-62
2024/01/30 01:26:24;;;;;;;21.02;16.23;;;;;;;-146.25;100.00;52573.00;2122268;27;31330;-62
2024/01/30 01:27:26;;;;;;;21.42;16.30;;;;;;;-146.25;100.00;52556.75;2121478;27;32406;-63
2024/01/30 01:28:30;;;;;;;19.88;15.52;;;;;;;-146.25;100.00;52579.06;2121845;27;34591;-62
2024/01/30 01:29:32;;;;;;;21.23;16.63;;;;;;;-146.25;100.00;52587.19;2121543;27;35469;-62
2024/01/30 01:30:36;;;;;;;19.98;16.20;;;;;;;-146.25;100.00;52542.56;2121901;27;33204;-62
2024/01/30 01:31:43;;;;;;;20.98;15.55;;;;;;;-146.25;100.00;52556.75;2121520;27;34995;-62
2024/01/30 01:32:50;;;;;;;24.73;17.05;;;;;;;-146.25;100.00;52552.72;2121474;27;34550;-62
2024/01/30 01:33:52;;;;;;;20.27;15.50;;;;;;;-146.25;100.00;52564.88;2121625;27;36920;-62
2024/01/30 01:34:54;;;;;;;18.60;15.18;;;;;;;-146.25;100.00;52573.00;2122860;27;29073;-63
2024/01/30 01:35:56;;;;;;;21.30;16.40;;;;;;;-146.25;100.00;52550.69;2123579;27;36357;-64
2024/01/30 01:36:58;;;;;;;21.40;16.20;;;;;;;-146.25;100.00;52564.88;2121890;27;34074;-63
2024/01/30 01:38:00;;;;;;;20.88;16.73;;;;;;;-146.25;100.00;52564.88;2121398;27;33477;-62
2024/01/30 01:39:03;;;;;;;22.75;16.98;;;;;;;-146.25;100.00;52558.78;2122073;27;33444;-63
2024/01/30 01:40:06;;;;;;;20.90;16.40;;;;;;;-146.25;100.00;52566.91;2121915;27;20046;-61
2024/01/30 01:41:08;;;;;;;22.05;16.75;;;;;;;-146.25;100.00;52550.69;2121796;27;32831;-64
2024/01/30 01:42:09;;;;;;;19.92;16.42;;;;;;;-146.25;100.00;52570.97;2121430;27;35557;-63
2024/01/30 01:43:11;;;;;;;21.20;15.88;;;;;;;-146.25;100.00;52556.75;2121639;27;30585;-63
2024/01/30 01:44:13;;;;;;;21.35;17.23;;;;;;;-146.25;100.00;52560.81;2121496;27;35887;-63
2024/01/30 01:45:17;;;;;;;23.05;16.20;;;;;;;-146.25;100.00;52550.69;2121662;27;32843;-63
2024/01/30 01:46:19;;;;;;;20.20;16.08;;;;;;;-146.25;100.00;52579.06;2121325;27;34927;-63
2024/01/30 01:47:23;;;;;;;23.40;16.85;;;;;;;-146.25;100.00;52566.91;2121775;27;35531;-63
2024/01/30 01:48:26;;;;;;;23.23;17.65;;;;;;;-146.25;100.00;52556.75;2112665;28;31161;-67
2024/01/30 01:49:30;;;;;;;21.40;15.60;;;;;;;-146.25;100.00;52546.63;2114115;27;20926;-64
2024/01/30 01:50:32;;;;;;;22.65;16.85;;;;;;;-146.25;100.00;52583.13;2112543;28;36442;-63
2024/01/30 01:51:36;;;;;;;21.02;16.48;;;;;;;-146.25;100.00;52560.81;2112742;27;33872;-63
2024/01/30 01:52:40;;;;;;;23.13;18.02;;;;;;;-146.25;100.00;52575.00;2121282;27;35785;-63
2024/01/30 01:53:42;;;;;;;21.35;16.90;;;;;;;-146.25;100.00;52542.56;2122489;27;20078;-63
2024/01/30 01:54:46;;;;;;;22.63;17.23;;;;;;;-146.25;100.00;52562.84;2112085;28;31362;-63
2024/01/30 01:55:48;;;;;;;23.98;16.85;;;;;;;-146.25;100.00;52562.84;2112912;27;33361;-63
2024/01/30 01:56:53;;;;;;;22.08;17.13;;;;;;;-146.25;100.00;52530.41;2111726;28;20043;-63
2024/01/30 01:57:55;;;;;;;22.30;16.98;;;;;;;-146.25;100.00;52558.78;2104409;28;37548;-62
2024/01/30 01:59:07;;;;;;;20.73;16.42;;;;;;;-146.25;100.00;52550.69;2113093;27;34069;-62
2024/01/30 02:00:10;;;;;;;20.70;16.50;;;;;;;-146.25;100.00;52589.22;2112455;28;33343;-63
2024/01/30 02:01:14;;;;;;;25.17;17.15;;;;;;;-146.25;100.00;52554.75;2105748;28;35271;-63
2024/01/30 02:02:19;;;;;;;24.67;17.67;;;;;;;-146.25;100.00;52583.13;2104662;28;20044;-63
2024/01/30 02:03:21;;;;;;;25.92;18.83;;;;;;;-146.25;100.00;52570.97;2104268;28;38386;-63
2024/01/30 02:04:23;;;;;;;25.00;17.63;;;;;;;-146.25;100.00;52587.19;2113502;27;20044;-63
2024/01/30 02:05:26;;;;;;;23.92;17.73;;;;;;;-146.25;100.00;52566.91;2121208;27;35416;-62
2024/01/30 02:06:28;;;;;;;21.17;17.02;;;;;;;-146.25;100.00;52546.63;2121623;27;35456;-62
2024/01/30 02:07:30;;;;;;;23.27;17.25;;;;;;;-146.25;100.00;52562.84;2121261;27;35386;-63
2024/01/30 02:08:33;;;;;;;23.10;17.35;;;;;;;-146.25;100.00;52562.84;2121421;27;33571;-63
2024/01/30 02:09:35;;;;;;;20.85;16.52;;;;;;;-146.25;100.00;52579.06;2121560;27;20039;-62
2024/01/30 02:10:36;;;;;;;23.38;18.08;;;;;;;-146.25;100.00;52558.78;2121736;27;38090;-63
2024/01/30 02:11:38;;;;;;;22.02;17.15;;;;;;;-146.25;100.00;52560.81;2121597;27;36505;-62
2024/01/30 02:12:40;;;;;;;26.50;19.23;;;;;;;-146.25;100.00;52562.84;2121380;27;30045;-62
2024/01/30 02:13:42;;;;;;;22.88;17.73;;;;;;;-146.25;100.00;52534.47;2112430;28;34292;-63
2024/01/30 02:14:50;;;;;;;22.13;17.85;;;;;;;-146.25;100.00;52554.75;2113052;27;20982;-62
2024/01/30 02:15:54;;;;;;;26.90;18.85;;;;;;;-146.25;100.00;52534.47;2121439;27;36366;-63
2024/01/30 02:16:56;;;;;;;24.27;18.58;;;;;;;-146.25;100.00;52564.88;2121096;27;35190;-63
2024/01/30 02:17:58;;;;;;;28.08;19.58;;;;;;;-146.25;100.00;52550.69;2121529;27;32849;-63
2024/01/30 02:19:00;;;;;;;24.63;18.08;;;;;;;-146.25;100.00;52556.75;2121018;27;35732;-63
2024/01/30 02:20:05;;;;;;;22.65;17.25;;;;;;;-146.25;100.00;52568.94;2122108;27;20036;-63
2024/01/30 02:21:07;;;;;;;24.35;18.73;;;;;;;-146.25;100.00;52538.53;2121141;27;37614;-63
2024/01/30 02:22:09;;;;;;;26.33;18.88;;;;;;;-146.25;100.00;52603.41;2121243;27;33375;-63
2024/01/30 02:23:12;;;;;;;26.70;18.42;;;;;;;-146.25;100.00;52556.75;2121564;27;32642;-62
2024/01/30 02:24:14;;;;;;;25.90;19.08;;;;;;;-146.25;100.00;52560.81;2121342;27;34726;-62
2024/01/30 02:25:16;;;;;;;28.98;19.58;;;;;;;-146.25;100.00;52532.44;2121460;27;20099;-63
2024/01/30 02:26:17;;;;;;;24.13;18.35;;;;;;;-146.25;100.00;52530.41;2121554;27;35583;-63
2024/01/30 02:27:19;;;;;;;24.98;19.10;;;;;;;-146.25;100.00;52554.75;2121337;27;33800;-63
2024/01/30 02:28:23;;;;;;;27.40;19.00;;;;;;;-146.25;100.00;52538.53;2121179;27;29404;-63
2024/01/30 02:29:25;;;;;;;25.92;18.63;;;;;;;-146.25;100.00;52534.47;2120968;27;37319;-63
2024/01/30 02:30:29;;;;;;;24.13;18.92;;;;;;;-146.25;100.00;52556.75;2122145;27;20043;-63
2024/01/30 02:31:30;;;;;;;25.73;19.50;;;;;;;-146.25;100.00;52546.63;2121152;27;34161;-63
2024/01/30 02:32:34;;;;;;;26.15;18.13;;;;;;;-146.25;100.00;52540.53;2121737;27;30189;-62
2024/01/30 02:33:36;;;;;;;27.42;18.70;;;;;;;-146.25;100.00;52570.97;2121382;27;31736;-63
2024/01/30 02:34:40;;;;;;;26.25;18.67;;;;;;;-146.25;100.00;52532.44;2121360;27;35195;-62
2024/01/30 02:35:42;;;;;;;22.50;18.08;;;;;;;-146.25;100.00;52558.78;2121800;27;20842;-63
2024/01/30 02:36:44;;;;;;;26.05;18.67;;;;;;;-146.25;100.00;52550.69;2112312;28;35132;-62
2024/01/30 02:37:46;;;;;;;26.00;18.42;;;;;;;-146.25;100.00;52583.13;2112747;27;20095;-63
2024/01/30 02:38:48;;;;;;;23.15;18.17;;;;;;;-146.25;100.00;52548.66;2121572;27;34823;-62
2024/01/30 02:39:52;;;;;;;24.20;19.30;;;;;;;-146.25;100.00;52546.63;2111612;28;37129;-62
2024/01/30 02:40:53;;;;;;;26.52;18.88;;;;;;;-146.25;100.00;52575.00;2104098;28;34163;-62
2024/01/30 02:41:55;;;;;;;26.52;20.15;;;;;;;-146.25;100.00;52595.28;2112674;27;33424;-62
2024/01/30 02:42:59;;;;;;;28.02;19.58;;;;;;;-146.25;100.00;52568.94;2121050;27;31911;-61
2024/01/30 02:44:03;;;;;;;22.58;17.75;;;;;;;-146.25;100.00;52542.56;2121742;27;20078;-62
2024/01/30 02:45:06;;;;;;;26.50;18.73;;;;;;;-146.25;100.00;52581.09;2121047;27;20162;-61
2024/01/30 02:46:10;;;;;;;27.30;19.17;;;;;;;-146.25;100.00;52566.91;2121401;27;20043;-62
2024/01/30 02:47:12;;;;;;;25.63;18.70;;;;;;;-146.25;100.00;52577.03;2121547;27;34268;-63
2024/01/30 02:48:14;;;;;;;24.10;19.58;;;;;;;-146.25;100.00;52570.97;2121223;27;31704;-61
2024/01/30 02:49:16;;;;;;;23.67;18.70;;;;;;;-146.25;100.00;52575.00;2121058;27;35373;-64
2024/01/30 02:50:18;;;;;;;26.45;19.67;;;;;;;-146.25;100.00;52556.75;2121310;27;20035;-62
2024/01/30 02:51:20;;;;;;;25.75;19.58;;;;;;;-146.25;100.00;52552.72;2103512;28;37643;-62
2024/01/30 02:52:22;;;;;;;26.08;18.80;;;;;;;-146.25;100.00;52568.94;2104596;27;29959;-62
2024/01/30 02:53:26;;;;;;;29.40;21.38;;;;;;;-146.25;100.00;52570.97;2121284;27;31074;-62
2024/01/30 02:54:30;;;;;;;24.52;19.25;;;;;;;-146.25;100.00;52570.97;2121128;27;37872;-62
2024/01/30 02:55:32;;;;;;;25.90;19.70;;;;;;;-146.25;100.00;52554.75;2122267;27;20047;-62
2024/01/30 02:56:34;;;;;;;28.38;20.02;;;;;;;-146.25;100.00;52558.78;2120398;27;37330;-62
2024/01/30 02:57:36;;;;;;;22.92;18.98;;;;;;;-146.25;100.00;52520.28;2120457;27;34133;-62
2024/01/30 02:58:39;;;;;;;24.20;19.75;;;;;;;-146.25;100.00;52599.34;2121303;27;32607;-61
2024/01/30 02:59:41;;;;;;;27.40;20.48;;;;;;;-146.25;100.00;52570.97;2120846;27;36507;-62
2024/01/30 03:00:43;;;;;;;25.00;19.73;;;;;;;-146.25;100.00;52566.91;2120721;27;30334;-62
2024/01/30 03:01:46;;;;;;;23.92;18.42;;;;;;;-146.25;100.00;52512.16;2121063;27;36083;-62
2024/01/30 03:02:48;;;;;;;25.73;18.98;;;;;;;-146.25;100.00;52530.41;2121935;27;20043;-62
2024/01/30 03:03:50;;;;;;;26.00;19.02;;;;;;;-146.25;100.00;52587.19;2120916;27;35248;-63
2024/01/30 03:04:52;;;;;;;26.33;19.33;;;;;;;-146.25;100.00;52568.94;2120653;27;32544;-62
2024/01/30 03:05:56;;;;;;;28.77;20.60;;;;;;;-146.25;100.00;52566.91;2121514;27;20182;-62
2024/01/30 03:06:58;;;;;;;25.02;19.63;;;;;;;-146.25;100.00;52522.28;2121238;27;36717;-63
2024/01/30 03:08:00;;;;;;;26.17;19.30;;;;;;;-146.25;100.00;52585.16;2122541;27;20036;-63
2024/01/30 03:09:02;;;;;;;27.85;20.52;;;;;;;-146.25;100.00;52554.75;2122811;27;35436;-62
2024/01/30 03:10:05;;;;;;;25.33;19.75;;;;;;;-146.25;100.00;52556.75;2122551;27;30596;-63
2024/01/30 03:11:07;;;;;;;26.05;19.17;;;;;;;-146.25;100.00;52550.69;2122650;27;33461;-62
2024/01/30 03:12:09;;;;;;;26.17;19.50;;;;;;;-146.25;100.00;52534.47;2122658;27;35014;-63
2024/01/30 03:13:12;;;;;;;29.10;20.45;;;;;;;-146.25;100.00;52595.28;2122670;27;30315;-62
2024/01/30 03:14:13;;;;;;;26.05;19.90;;;;;;;-146.25;100.00;52532.44;2122623;27;34901;-63
2024/01/30 03:15:15;;;;;;;27.38;20.55;;;;;;;-146.25;100.00;52544.59;2122932;27;20083;-63
2024/01/30 03:16:17;;;;;;;29.58;20.63;;;;;;;-146.25;100.00;52532.44;2122610;27;34436;-63
2024/01/30 03:17:19;;;;;;;28.67;20.85;;;;;;;-146.25;100.00;52552.72;2122756;27;34794;-63
2024/01/30 03:18:23;;;;;;;26.40;19.92;;;;;;;-146.25;100.00;52579.06;2121980;27;34402;-63
2024/01/30 03:19:24;;;;;;;26.25;21.15;;;;;;;-146.25;100.00;52577.03;2122244;27;33400;-62
2024/01/30 03:20:26;;;;;;;24.27;19.55;;;;;;;-146.25;100.00;52585.16;2122979;27;20050;-63
2024/01/30 03:21:28;;;;;;;27.02;20.83;;;;;;;-146.25;100.00;52560.81;2122731;27;32667;-63
2024/01/30 03:22:30;;;;;;;26.38;20.20;;;;;;;-146.25;100.00;52575.00;2122309;27;36326;-62
2024/01/30 03:23:32;;;;;;;30.50;20.58;;;;;;;-146.25;100.00;52536.50;2122164;27;37931;-62
2024/01/30 03:24:37;;;;;;;28.23;21.23;;;;;;;-146.25;100.00;52562.84;2123548;27;20027;-62
2024/01/30 03:25:38;;;;;;;24.63;19.45;;;;;;;-146.25;100.00;52562.84;2122901;27;20055;-63
2024/01/30 03:26:40;;;;;;;31.52;22.10;;;;;;;-146.25;100.00;52530.41;2122535;27;32145;-63
2024/01/30 03:27:42;;;;;;;25.30;19.92;;;;;;;-146.25;100.00;52562.84;2122730;27;31657;-63
2024/01/30 03:28:44;;;;;;;27.02;20.23;;;;;;;-146.25;100.00;52548.66;2113481;28;34565;-62
2024/01/30 03:29:45;;;;;;;27.27;20.52;;;;;;;-146.25;100.00;52554.75;2113421;27;35040;-62
2024/01/30 03:30:47;;;;;;;29.65;21.23;;;;;;;-146.25;100.00;52554.75;2123012;27;20083;-63
2024/01/30 03:31:49;;;;;;;26.15;19.05;;;;;;;-146.25;100.00;52514.19;2122352;27;35708;-63
2024/01/30 03:32:51;;;;;;;26.08;20.40;;;;;;;-146.25;100.00;52562.84;2122908;27;20032;-62
2024/01/30 03:33:53;;;;;;;28.25;20.50;;;;;;;-146.25;100.00;52544.59;2122854;27;32762;-62
2024/01/30 03:34:55;;;;;;;25.83;20.35;;;;;;;-146.25;100.00;52562.84;2122407;27;32027;-63
2024/01/30 03:36:04;;;;;;;24.50;18.83;;;;;;;-146.25;100.00;52546.63;2113052;28;35036;-62
2024/01/30 03:37:06;;;;;;;26.27;19.77;;;;;;;-146.25;100.00;52556.75;2114513;27;36374;-62
2024/01/30 03:38:08;;;;;;;25.48;19.73;;;;;;;-146.25;100.00;52564.88;2122668;27;32374;-62
2024/01/30 03:39:09;;;;;;;29.55;20.33;;;;;;;-146.25;100.00;52556.75;2122266;27;36313;-63
2024/01/30 03:40:12;;;;;;;27.17;19.45;;;;;;;-146.25;100.00;52550.69;2122986;27;20051;-62
2024/01/30 03:41:16;;;;;;;27.00;20.85;;;;;;;-146.25;100.00;52583.13;2122460;27;33495;-62
2024/01/30 03:42:17;;;;;;;25.10;20.00;;;;;;;-146.25;100.00;52530.41;2122833;27;24957;-62
2024/01/30 03:43:19;;;;;;;24.67;19.45;;;;;;;-146.25;100.00;52566.91;2122897;27;34531;-62
2024/01/30 03:44:21;;;;;;;26.13;19.67;;;;;;;-146.25;100.00;52581.09;2122092;27;34989;-62
2024/01/30 03:45:23;;;;;;;27.38;19.95;;;;;;;-146.25;100.00;52566.91;2123470;27;20935;-63
2024/01/30 03:46:24;;;;;;;23.75;18.77;;;;;;;-146.25;100.00;52562.84;2122409;27;36197;-63
2024/01/30 03:47:26;;;;;;;26.63;19.75;;;;;;;-146.25;100.00;52514.19;2122224;27;32911;-62
2024/01/30 03:48:29;;;;;;;26.63;19.13;;;;;;;-146.25;100.00;52546.63;2122797;27;32347;-62
2024/01/30 03:49:31;;;;;;;28.95;19.77;;;;;;;-146.25;100.00;52538.53;2122282;27;23789;-63
2024/01/30 03:50:32;;;;;;;24.48;18.42;;;;;;;-146.25;100.00;52558.78;2122767;27;35639;-63
2024/01/30 03:51:34;;;;;;;26.20;20.05;;;;;;;-146.25;100.00;52566.91;2122324;27;34373;-62
2024/01/30 03:52:36;;;;;;;25.90;20.20;;;;;;;-146.25;100.00;52530.41;2122004;27;37480;-62
2024/01/30 03:53:38;;;;;;;26.60;20.17;;;;;;;-146.25;100.00;52520.28;2122635;27;30182;-63
2024/01/30 03:54:40;;;;;;;27.17;18.80;;;;;;;-146.25;100.00;52562.84;2123006;27;20948;-63
2024/01/30 03:55:41;;;;;;;24.05;18.35;;;;;;;-146.25;100.00;52532.44;2121560;27;37384;-63
2024/01/30 03:56:43;;;;;;;25.65;18.85;;;;;;;-146.25;100.00;52564.88;2122767;27;33164;-63
2024/01/30 03:57:45;;;;;;;24.45;19.27;;;;;;;-146.25;100.00;52554.75;2122123;27;35294;-63
2024/01/30 03:58:47;;;;;;;24.00;18.50;;;;;;;-146.25;100.00;52536.50;2122313;27;31560;-62
2024/01/30 03:59:48;;;;;;;25.10;19.63;;;;;;;-146.25;100.00;52530.41;2121956;27;37208;-63
2024/01/30 04:00:50;;;;;;;24.27;18.70;;;;;;;-146.25;100.00;52548.66;2122560;27;20174;-63
2024/01/30 04:01:52;;;;;;;25.42;19.30;;;;;;;-146.25;100.00;52520.28;2122199;27;36180;-62
2024/01/30 04:02:55;;;;;;;26.52;19.67;;;;;;;-146.25;100.00;52528.38;2122787;27;20043;-63
2024/01/30 04:03:56;;;;;;;25.23;19.95;;;;;;;-146.25;100.00;52530.41;2121649;27;39672;-63
2024/01/30 04:04:58;;;;;;;24.60;19.13;;;;;;;-146.25;100.00;52552.72;2122719;27;29819;-62
2024/01/30 04:06:00;;;;;;;25.10;19.17;;;;;;;-146.25;100.00;52556.75;2121952;27;36642;-62
2024/01/30 04:07:02;;;;;;;28.15;19.65;;;;;;;-146.25;100.00;52548.66;2122069;27;34905;-62
2024/01/30 04:08:04;;;;;;;25.42;19.15;;;;;;;-146.25;100.00;52516.22;2122253;27;34828;-62
2024/01/30 04:09:06;;;;;;;24.90;19.25;;;;;;;-146.25;100.00;52560.81;2122442;27;35362;-62
2024/01/30 04:10:09;;;;;;;27.48;19.67;;;;;;;-146.25;100.00;52550.69;2121825;27;33363;-63
2024/01/30 04:11:11;;;;;;;27.00;19.70;;;;;;;-146.25;100.00;52579.06;2112755;28;35274;-62
2024/01/30 04:12:13;;;;;;;23.23;18.35;;;;;;;-146.25;100.00;52554.75;2113712;27;33655;-62
2024/01/30 04:13:15;;;;;;;25.20;19.65;;;;;;;-146.25;100.00;52591.25;2122378;27;33432;-62
2024/01/30 04:14:16;;;;;;;27.20;19.52;;;;;;;-146.25;100.00;52542.56;2121787;27;34835;-62
2024/01/30 04:15:19;;;;;;;28.70;21.23;;;;;;;-146.25;100.00;52560.81;2122306;27;37520;-62
2024/01/30 04:16:24;;;;;;;27.58;20.10;;;;;;;-146.25;100.00;52546.63;2121883;27;35630;-61
2024/01/30 04:17:28;;;;;;;26.90;19.85;;;;;;;-146.25;100.00;52554.75;2122354;27;30241;-62
2024/01/30 04:18:33;;;;;;;26.27;20.00;;;;;;;-146.25;100.00;52538.53;2121867;27;35700;-64
2024/01/30 04:19:38;;;;;;;23.35;18.80;;;;;;;-146.25;100.00;52550.69;2111906;28;32706;-63
2024/01/30 04:20:40;;;;;;;27.05;20.00;;;;;;;-146.25;100.00;52546.63;2114214;27;29262;-63
2024/01/30 04:21:42;;;;;;;25.65;19.73;;;;;;;-146.25;100.00;52577.03;2122070;27;37454;-63
2024/01/30 04:22:45;;;;;;;24.92;19.17;;;;;;;-146.25;100.00;52556.75;2122417;27;34759;-63
2024/01/30 04:23:47;;;;;;;26.38;20.08;;;;;;;-146.25;100.00;52560.81;2113212;28;36827;-61
2024/01/30 04:24:48;;;;;;;27.23;20.10;;;;;;;-146.25;100.00;52568.94;2113263;27;36682;-64
2024/01/30 04:25:50;;;;;;;30.63;20.98;;;;;;;-146.25;100.00;52558.78;2121913;27;36683;-63
2024/01/30 04:26:52;;;;;;;26.00;20.02;;;;;;;-146.25;100.00;52508.09;2122145;27;34421;-63
2024/01/30 04:27:53;;;;;;;27.25;18.40;;;;;;;-146.25;100.00;52544.59;2122491;27;35920;-62
2024/01/30 04:28:55;;;;;;;24.25;19.27;;;;;;;-146.25;100.00;52568.94;2121963;27;33990;-63
2024/01/30 04:29:57;;;;;;;26.65;19.60;;;;;;;-146.25;100.00;52556.75;2121994;27;32375;-64
2024/01/30 04:30:59;;;;;;;27.98;19.27;;;;;;;-146.25;100.00;52560.81;2122099;27;33411;-64
2024/01/30 04:32:00;;;;;;;25.73;19.42;;;;;;;-146.25;100.00;52558.78;2122201;27;33450;-61
2024/01/30 04:33:03;;;;;;;25.23;19.73;;;;;;;-146.25;100.00;52536.50;2122424;27;32255;-62
2024/01/30 04:34:04;;;;;;;25.00;19.13;;;;;;;-146.25;100.00;52566.91;2122375;27;33034;-62
2024/01/30 04:35:07;;;;;;;24.42;19.55;;;;;;;-146.25;100.00;52546.63;2121680;27;37079;-61
2024/01/30 04:36:11;;;;;;;28.00;19.23;;;;;;;-146.25;100.00;52573.00;2122307;27;28291;-62
2024/01/30 04:37:13;;;;;;;25.40;19.25;;;;;;;-146.25;100.00;52573.00;2122042;27;35688;-62